Time;durP1;ratioP1;P1;durP2;ratioP2;P2;SDS_P1;SDS_P2;PMS_P1;PMS_P2;Temp;Humidity;BMP_temperature;BMP_pressure;BME280_temperature;BME280_humidity;BME280_pressure;Samples;Min_cycle;Max_cycle;Signal;HPM_P1;HPM_P2
2022/04/14 00:01:11;;;;;;;9.30;3.30;;;;;;;11.10;84.62;98689.91;5032531;28;20192;-55
2022/04/14 00:03:40;;;;;;;9.73;2.97;;;;;;;11.12;84.73;98690.56;5033203;28;20705;-55
2022/04/14 00:06:07;;;;;;;7.60;3.50;;;;;;;11.11;83.99;98687.16;5032469;28;20193;-55
2022/04/14 00:08:33;;;;;;;8.80;2.73;;;;;;;11.12;83.55;98688.81;5033196;28;20181;-55
2022/04/14 00:11:01;;;;;;;7.77;3.03;;;;;;;11.05;83.80;98691.19;5032284;28;20200;-55
2022/04/14 00:13:28;;;;;;;10.37;3.13;;;;;;;11.00;83.89;98688.22;5033022;28;20265;-55
2022/04/14 00:15:55;;;;;;;17.27;3.40;;;;;;;10.91;84.71;98692.56;5033045;28;20195;-55
2022/04/14 00:18:22;;;;;;;8.83;3.20;;;;;;;10.91;84.83;98702.16;5032704;28;20203;-55
2022/04/14 00:20:49;;;;;;;10.80;3.30;;;;;;;10.91;85.46;98692.56;5032200;28;20181;-55
2022/04/14 00:23:15;;;;;;;10.33;3.27;;;;;;;10.84;85.43;98696.75;5032795;28;20553;-55
2022/04/14 00:25:42;;;;;;;7.50;3.67;;;;;;;10.79;85.77;98701.59;5032885;28;20189;-55
2022/04/14 00:28:10;;;;;;;5.33;3.10;;;;;;;10.73;85.46;98703.00;5032823;28;20181;-55
2022/04/14 00:30:38;;;;;;;9.77;3.30;;;;;;;10.72;85.52;98703.97;5031942;28;20185;-55
2022/04/14 00:33:05;;;;;;;8.80;3.10;;;;;;;10.67;86.54;98706.22;5032429;28;20192;-54
2022/04/14 00:35:32;;;;;;;10.23;3.17;;;;;;;10.61;85.79;98698.97;5032931;28;20261;-54
2022/04/14 00:37:59;;;;;;;13.53;3.70;;;;;;;10.61;86.16;98693.75;5032642;28;20212;-55
2022/04/14 00:40:26;;;;;;;11.73;3.73;;;;;;;10.58;87.36;98697.50;5031896;28;20196;-55
2022/04/14 00:42:53;;;;;;;10.50;3.60;;;;;;;10.60;87.35;98698.16;5032493;28;20176;-55
2022/04/14 00:45:21;;;;;;;9.30;3.37;;;;;;;10.57;87.44;98698.47;5032430;28;20245;-55
2022/04/14 00:47:49;;;;;;;9.00;3.87;;;;;;;10.52;87.16;98698.09;5032399;28;20216;-55
2022/04/14 00:50:15;;;;;;;9.83;3.23;;;;;;;10.57;88.14;98698.47;5031642;28;20200;-55
2022/04/14 00:52:47;;;;;;;9.00;3.50;;;;;;;10.55;87.89;98703.00;5032406;28;20185;-55
2022/04/14 00:55:14;;;;;;;8.60;3.30;;;;;;;10.64;88.48;98709.13;5032228;28;20211;-55
2022/04/14 00:57:41;;;;;;;8.83;3.60;;;;;;;10.68;89.37;98709.66;5032223;28;20215;-55
2022/04/14 01:00:08;;;;;;;10.87;3.20;;;;;;;10.70;88.79;98715.53;5031328;28;20556;-55
2022/04/14 01:02:37;;;;;;;9.30;3.97;;;;;;;10.70;88.76;98711.13;5032418;28;20560;-55
2022/04/14 01:05:05;;;;;;;13.73;3.13;;;;;;;10.78;87.90;98705.97;5032105;28;20250;-55
2022/04/14 01:07:35;;;;;;;9.37;3.00;;;;;;;10.90;87.61;98703.16;5032193;28;20192;-55
2022/04/14 01:10:02;;;;;;;8.57;3.63;;;;;;;10.96;87.88;98699.94;5031734;28;20180;-55
2022/04/14 01:12:31;;;;;;;12.57;3.90;;;;;;;11.06;88.42;98708.50;5032009;28;20315;-55
2022/04/14 01:14:58;;;;;;;9.70;3.23;;;;;;;11.12;88.83;98711.47;5032037;28;20266;-55
2022/04/14 01:17:24;;;;;;;7.83;3.00;;;;;;;11.15;88.93;98714.59;5031257;28;20196;-55
2022/04/14 01:19:53;;;;;;;7.50;3.20;;;;;;;11.26;88.04;98720.53;5031167;28;20189;-55
2022/04/14 01:22:24;;;;;;;8.77;3.20;;;;;;;11.42;89.00;98717.25;5031959;28;20190;-54
2022/04/14 01:24:56;;;;;;;6.27;3.03;;;;;;;11.44;88.48;98725.75;5031936;28;20205;-55
2022/04/14 01:27:23;;;;;;;9.67;3.67;;;;;;;11.44;88.10;98730.97;5031953;28;20205;-55
2022/04/14 01:29:51;;;;;;;6.67;3.30;;;;;;;11.48;87.50;98727.88;5031054;28;20193;-55
2022/04/14 01:32:19;;;;;;;10.93;3.73;;;;;;;11.50;87.24;98728.56;5031594;28;20213;-55
2022/04/14 01:34:46;;;;;;;9.07;3.80;;;;;;;11.58;87.34;98737.41;5031771;28;20305;-55
2022/04/14 01:37:13;;;;;;;8.93;3.33;;;;;;;11.59;86.87;98739.06;5032194;28;20191;-55
2022/04/14 01:39:40;;;;;;;11.03;3.27;;;;;;;11.60;86.65;98738.91;5013066;28;20603;-55
2022/04/14 01:42:08;;;;;;;10.27;3.60;;;;;;;11.69;87.08;98752.00;5031803;28;20185;-55
2022/04/14 01:44:36;;;;;;;7.23;3.10;;;;;;;11.70;87.55;98746.63;5031656;28;20276;-55
2022/04/14 01:47:03;;;;;;;9.90;3.40;;;;;;;11.71;86.90;98745.66;5031674;28;20193;-56
2022/04/14 01:49:30;;;;;;;7.00;3.20;;;;;;;11.74;86.59;98749.75;5031403;28;20592;-55
2022/04/14 01:51:57;;;;;;;12.57;3.07;;;;;;;11.80;86.16;98756.97;5031218;28;20186;-55
2022/04/14 01:54:24;;;;;;;8.90;3.17;;;;;;;11.83;85.45;98756.66;5031367;28;20226;-55
2022/04/14 01:56:51;;;;;;;8.77;3.43;;;;;;;11.87;86.80;98760.63;5031831;28;20288;-55
2022/04/14 01:59:19;;;;;;;6.40;3.13;;;;;;;11.87;86.70;98760.63;5031791;28;20209;-55
2022/04/14 02:01:46;;;;;;;7.83;2.77;;;;;;;11.90;86.41;98764.72;5030810;28;20189;-55
2022/04/14 02:04:13;;;;;;;7.60;3.23;;;;;;;11.92;86.66;98765.38;5031614;28;20198;-56
2022/04/14 02:06:41;;;;;;;12.00;3.20;;;;;;;11.94;87.60;98772.09;5031503;28;20315;-55
2022/04/14 02:09:08;;;;;;;9.00;3.00;;;;;;;11.95;87.10;98762.47;5031826;28;20190;-55
2022/04/14 02:11:35;;;;;;;8.27;3.03;;;;;;;11.96;86.73;98775.38;5030706;28;20198;-55
2022/04/14 02:14:01;;;;;;;8.37;3.20;;;;;;;11.93;87.26;98775.69;5031386;28;20219;-55
2022/04/14 02:16:30;;;;;;;10.63;3.33;;;;;;;11.95;86.78;98768.50;5031930;28;20267;-55
2022/04/14 02:18:56;;;;;;;9.53;3.60;;;;;;;12.00;86.03;98770.69;5031504;28;20701;-55
2022/04/14 02:21:23;;;;;;;10.70;3.17;;;;;;;12.07;87.33;98768.25;5030554;28;20194;-55
2022/04/14 02:23:50;;;;;;;10.90;3.60;;;;;;;12.07;86.39;98768.25;5031358;28;20202;-55
2022/04/14 02:26:17;;;;;;;9.07;3.20;;;;;;;12.07;86.62;98776.94;5031417;28;20189;-55
2022/04/14 02:28:44;;;;;;;15.10;3.43;;;;;;;12.08;86.90;98782.97;5031768;28;20400;-56
2022/04/14 02:31:10;;;;;;;9.10;3.40;;;;;;;12.12;85.35;98778.28;5034242;28;20600;-55
2022/04/14 02:33:38;;;;;;;7.63;3.63;;;;;;;12.08;85.18;98778.59;5034952;28;20709;-55
2022/04/14 02:36:06;;;;;;;10.07;3.27;;;;;;;12.05;85.89;98783.28;5034808;28;20182;-55
2022/04/14 02:38:33;;;;;;;8.10;3.30;;;;;;;12.12;86.69;98796.59;5016991;28;20224;-55
2022/04/14 02:40:59;;;;;;;9.73;3.37;;;;;;;12.06;86.05;98795.41;5034069;28;20237;-56
2022/04/14 02:43:26;;;;;;;11.03;2.90;;;;;;;12.02;86.11;98799.31;5034685;28;20205;-55
2022/04/14 02:45:53;;;;;;;10.47;3.50;;;;;;;11.99;86.35;98792.56;5034880;28;20198;-55
2022/04/14 02:48:20;;;;;;;9.57;4.37;;;;;;;11.97;85.73;98791.91;5034567;28;20224;-55
2022/04/14 02:50:48;;;;;;;9.77;3.57;;;;;;;12.01;86.87;98795.03;5033961;28;20195;-55
2022/04/14 02:53:15;;;;;;;8.17;3.63;;;;;;;12.07;85.15;98791.81;5034441;28;20205;-55
2022/04/14 02:55:42;;;;;;;7.97;3.90;;;;;;;12.01;86.57;98797.66;5034703;28;20179;-55
2022/04/14 02:58:09;;;;;;;6.90;2.83;;;;;;;11.95;85.87;98794.66;5034198;28;20285;-55
2022/04/14 03:00:36;;;;;;;9.53;3.97;;;;;;;11.94;87.44;98800.06;5033743;28;20181;-55
2022/04/14 03:03:03;;;;;;;9.30;3.83;;;;;;;11.93;88.60;98791.38;5034248;28;20182;-55
2022/04/14 03:05:30;;;;;;;8.83;3.37;;;;;;;11.87;88.19;98784.16;5034369;28;20204;-55
2022/04/14 03:07:58;;;;;;;5.57;3.20;;;;;;;11.87;88.10;98772.88;5034472;28;20594;-55
2022/04/14 03:10:25;;;;;;;8.17;3.90;;;;;;;11.84;87.65;98776.63;5033458;28;20189;-55
2022/04/14 03:12:52;;;;;;;10.73;3.73;;;;;;;11.83;87.82;98777.59;5034165;28;20191;-55
2022/04/14 03:15:19;;;;;;;11.60;3.77;;;;;;;11.87;88.28;98781.53;5034192;28;20250;-55
2022/04/14 03:17:49;;;;;;;11.17;3.60;;;;;;;11.79;88.39;98781.50;5034088;28;20190;-56
2022/04/14 03:20:15;;;;;;;12.50;4.10;;;;;;;11.83;87.57;98777.59;5033350;28;20224;-55
2022/04/14 03:22:42;;;;;;;13.67;4.43;;;;;;;11.82;88.17;98775.94;5034096;28;20205;-55
2022/04/14 03:25:13;;;;;;;9.27;4.63;;;;;;;11.71;88.46;98777.03;5033941;28;20213;-55
2022/04/14 03:27:40;;;;;;;15.03;5.73;;;;;;;11.72;89.58;98775.22;5033937;28;20236;-55
2022/04/14 03:30:10;;;;;;;15.40;6.50;;;;;;;11.65;91.53;98775.88;5033062;28;20227;-55
2022/04/14 03:32:41;;;;;;;13.17;6.43;;;;;;;11.57;91.71;98773.22;5033917;28;20719;-56
2022/04/14 03:35:08;;;;;;;12.77;7.13;;;;;;;11.47;91.56;98777.72;5033832;28;20213;-55
2022/04/14 03:37:35;;;;;;;19.83;7.63;;;;;;;11.48;93.00;98776.75;5033886;28;20239;-55
2022/04/14 03:40:02;;;;;;;14.40;7.10;;;;;;;11.41;93.83;98786.97;5032451;28;20820;-55
2022/04/14 03:42:31;;;;;;;17.30;6.87;;;;;;;11.29;93.47;98788.19;5033064;28;20190;-55
2022/04/14 03:44:58;;;;;;;14.37;7.13;;;;;;;11.25;94.03;98782.44;5033768;28;20262;-55
2022/04/14 03:47:25;;;;;;;14.53;8.43;;;;;;;11.16;93.95;98788.59;5033819;28;20199;-55
2022/04/14 03:49:52;;;;;;;13.33;8.30;;;;;;;11.12;94.82;98790.69;5032770;28;20200;-55
2022/04/14 03:52:19;;;;;;;14.85;8.75;;;;;;;11.06;95.46;98797.31;5033086;28;20433;-56
2022/04/14 03:54:46;;;;;;;20.20;8.90;;;;;;;10.99;97.21;98803.31;5033235;28;20222;-55
2022/04/14 03:57:12;;;;;;;15.63;7.63;;;;;;;11.03;96.34;98809.88;5033261;28;20242;-56
2022/04/14 03:59:40;;;;;;;15.17;7.53;;;;;;;10.97;95.81;98811.25;5032528;28;20255;-55
2022/04/14 04:02:08;;;;;;;11.10;6.20;;;;;;;10.90;94.60;98807.59;5033338;28;20196;-55
2022/04/14 04:04:34;;;;;;;12.73;6.47;;;;;;;10.75;94.69;98805.50;5033229;28;20211;-55
2022/04/14 04:07:01;;;;;;;10.40;6.53;;;;;;;10.63;95.50;98804.06;5033266;28;20185;-55
2022/04/14 04:09:28;;;;;;;12.50;6.17;;;;;;;10.60;96.31;98807.00;5032948;28;20283;-55
2022/04/14 04:11:55;;;;;;;15.10;5.93;;;;;;;10.53;95.91;98803.31;5032515;28;20196;-55
2022/04/14 04:14:22;;;;;;;13.97;5.93;;;;;;;10.47;97.38;98802.09;5033070;28;20212;-55
2022/04/14 04:16:50;;;;;;;14.20;6.10;;;;;;;10.46;97.63;98811.75;5033070;28;20230;-55
2022/04/14 04:19:17;;;;;;;10.93;5.63;;;;;;;10.40;97.78;98812.31;5032951;28;20224;-55
2022/04/14 04:21:44;;;;;;;13.53;5.83;;;;;;;10.31;98.16;98815.75;5032220;28;20179;-55
2022/04/14 04:24:11;;;;;;;18.50;6.00;;;;;;;10.26;97.61;98817.97;5033181;28;20240;-55
2022/04/14 04:26:37;;;;;;;9.63;5.93;;;;;;;10.25;97.92;98819.75;5032785;28;20579;-55
2022/04/14 04:29:04;;;;;;;10.70;5.93;;;;;;;10.15;97.95;98813.75;5032837;28;20764;-55
2022/04/14 04:31:31;;;;;;;15.97;6.23;;;;;;;10.14;98.92;98820.75;5014384;28;20553;-55
2022/04/14 04:33:59;;;;;;;15.73;7.03;;;;;;;10.13;99.72;98819.13;5032746;28;20691;-55
2022/04/14 04:36:26;;;;;;;16.67;6.40;;;;;;;10.07;99.87;98824.91;5032736;28;20240;-56
2022/04/14 04:38:53;;;;;;;12.20;7.23;;;;;;;10.08;98.95;98818.72;5032420;28;20208;-56
2022/04/14 04:41:19;;;;;;;17.13;7.70;;;;;;;10.05;99.94;98824.22;5031703;28;20188;-56
2022/04/14 04:43:46;;;;;;;13.83;7.73;;;;;;;10.05;100.00;98826.84;5032573;28;20266;-55
2022/04/14 04:46:13;;;;;;;14.97;7.63;;;;;;;10.00;100.00;98832.50;5032496;28;20201;-56
2022/04/14 04:48:40;;;;;;;16.60;7.57;;;;;;;10.02;100.00;98827.97;5032508;28;20267;-56
2022/04/14 04:51:08;;;;;;;14.60;7.73;;;;;;;9.98;100.00;98830.97;5031654;28;20191;-56
2022/04/14 04:53:35;;;;;;;16.07;8.37;;;;;;;9.93;100.00;98831.41;5031846;28;20223;-56
2022/04/14 04:56:02;;;;;;;17.70;9.10;;;;;;;9.94;100.00;98840.88;5032473;28;20195;-56
2022/04/14 04:58:29;;;;;;;17.80;9.77;;;;;;;9.96;100.00;98838.13;5032574;28;20193;-55
2022/04/14 05:00:55;;;;;;;25.37;13.70;;;;;;;10.00;100.00;98840.31;5031512;28;20241;-56
2022/04/14 05:03:22;;;;;;;20.87;12.10;;;;;;;10.03;100.00;98840.03;5032198;28;20208;-55
2022/04/14 05:05:49;;;;;;;19.23;9.07;;;;;;;10.18;100.00;98844.75;5032411;28;20187;-56
2022/04/14 05:08:17;;;;;;;13.27;8.17;;;;;;;10.21;100.00;98841.88;5032148;28;20191;-56
2022/04/14 05:10:44;;;;;;;11.93;7.23;;;;;;;10.21;100.00;98841.06;5031371;28;20184;-56
2022/04/14 05:13:11;;;;;;;18.63;8.43;;;;;;;10.23;100.00;98841.75;5032048;28;20572;-55
2022/04/14 05:15:38;;;;;;;15.27;8.00;;;;;;;10.24;100.00;98846.00;5032117;28;20242;-56
2022/04/14 05:18:05;;;;;;;15.07;8.83;;;;;;;10.33;100.00;98858.19;5032053;28;20190;-56
2022/04/14 05:20:34;;;;;;;15.77;8.53;;;;;;;10.39;100.00;98854.16;5031028;28;20672;-56
2022/04/14 05:23:01;;;;;;;21.00;8.90;;;;;;;10.43;100.00;98861.59;5031980;28;20268;-56
2022/04/14 05:25:29;;;;;;;22.83;8.90;;;;;;;10.46;100.00;98870.94;5031939;28;20181;-54
2022/04/14 05:27:56;;;;;;;19.67;9.17;;;;;;;10.50;100.00;98867.06;5032166;28;20261;-56
2022/04/14 05:30:23;;;;;;;17.50;8.80;;;;;;;10.53;100.00;98866.78;5031189;28;20187;-56
2022/04/14 05:32:50;;;;;;;22.67;10.30;;;;;;;10.59;100.00;98863.59;5031723;28;20195;-56
2022/04/14 05:35:17;;;;;;;15.23;8.90;;;;;;;10.65;100.00;98863.97;5031878;28;20198;-56
2022/04/14 05:37:43;;;;;;;14.57;8.60;;;;;;;10.82;100.00;98875.41;5032110;28;20253;-56
2022/04/14 05:40:11;;;;;;;16.13;8.40;;;;;;;10.81;100.00;98877.22;5030920;28;20204;-56
2022/04/14 05:42:42;;;;;;;14.83;8.13;;;;;;;10.89;100.00;98874.69;5031753;28;20761;-56
2022/04/14 05:45:10;;;;;;;20.43;8.57;;;;;;;10.96;100.00;98874.91;5031685;28;20290;-56
2022/04/14 05:47:36;;;;;;;13.87;7.53;;;;;;;11.06;100.00;98882.72;5031856;28;20199;-56
2022/04/14 05:50:04;;;;;;;17.90;8.13;;;;;;;11.13;99.92;98882.94;5030956;28;20336;-56
2022/04/14 05:52:31;;;;;;;17.93;10.60;;;;;;;11.18;99.23;98881.50;5031662;28;20603;-56
2022/04/14 05:55:01;;;;;;;18.00;8.60;;;;;;;11.31;99.95;98889.00;5031530;28;20208;-56
2022/04/14 05:57:28;;;;;;;18.97;8.63;;;;;;;11.44;98.54;98888.59;5031800;28;20186;-56
2022/04/14 05:59:56;;;;;;;18.20;9.30;;;;;;;11.49;99.07;98888.16;5030640;28;20204;-56
2022/04/14 06:02:23;;;;;;;18.88;9.30;;;;;;;11.59;98.19;98891.53;5030726;28;20433;-55
2022/04/14 06:04:51;;;;;;;16.33;8.63;;;;;;;11.65;97.73;98888.31;5033661;28;20270;-55
2022/04/14 06:07:17;;;;;;;17.90;8.80;;;;;;;11.75;97.58;98888.22;5035433;28;20272;-55
2022/04/14 06:09:44;;;;;;;14.30;8.10;;;;;;;11.83;96.49;98887.44;5034550;28;20195;-55
2022/04/14 06:12:12;;;;;;;21.37;9.27;;;;;;;11.90;95.45;98891.09;5035313;28;20197;-55
2022/04/14 06:14:38;;;;;;;19.20;8.83;;;;;;;11.99;95.72;98899.84;5035233;28;20209;-55
2022/04/14 06:17:07;;;;;;;16.10;8.90;;;;;;;12.09;94.17;98894.53;5035575;28;20214;-55
2022/04/14 06:19:34;;;;;;;15.47;8.07;;;;;;;12.19;94.78;98895.22;5034697;28;20425;-55
2022/04/14 06:22:00;;;;;;;16.20;8.47;;;;;;;12.37;94.00;98896.97;5017222;28;20670;-54
2022/04/14 06:24:27;;;;;;;12.80;7.63;;;;;;;12.49;94.61;98897.50;5035039;28;20206;-55
2022/04/14 06:26:54;;;;;;;9.23;7.13;;;;;;;12.67;94.90;98902.69;5035127;28;20222;-55
2022/04/14 06:29:21;;;;;;;15.43;7.93;;;;;;;12.83;94.04;98902.72;5034934;28;20589;-55
2022/04/14 06:31:47;;;;;;;14.00;7.70;;;;;;;13.05;92.60;98907.56;5033964;28;20188;-55
2022/04/14 06:34:16;;;;;;;20.73;7.77;;;;;;;13.19;91.52;98906.09;5034902;28;20211;-55
2022/04/14 06:36:42;;;;;;;14.87;7.93;;;;;;;13.38;90.88;98907.59;5034897;28;20185;-55
2022/04/14 06:39:12;;;;;;;11.00;6.80;;;;;;;13.58;89.35;98914.19;5034712;28;20187;-55
2022/04/14 06:41:40;;;;;;;16.63;8.67;;;;;;;13.71;86.85;98911.13;5034184;28;20191;-55
2022/04/14 06:44:10;;;;;;;20.13;8.17;;;;;;;13.83;85.74;98913.38;5017183;28;20270;-56
2022/04/14 06:46:36;;;;;;;15.73;9.43;;;;;;;14.08;84.62;98910.75;5034733;28;20199;-55
2022/04/14 06:49:05;;;;;;;14.03;8.63;;;;;;;14.29;83.50;98907.59;5034587;28;20196;-55
2022/04/14 06:51:33;;;;;;;15.27;9.03;;;;;;;14.35;82.79;98912.16;5033944;28;20242;-55
2022/04/14 06:54:00;;;;;;;16.77;10.17;;;;;;;14.51;80.97;98920.97;5034471;28;20216;-55
2022/04/14 06:56:27;;;;;;;22.93;13.60;;;;;;;14.69;79.51;98924.22;5034413;28;20184;-55
2022/04/14 06:58:54;;;;;;;33.93;19.53;;;;;;;14.74;78.04;98929.00;5034574;28;20248;-55
2022/04/14 07:01:20;;;;;;;33.47;20.27;;;;;;;14.94;77.44;98926.75;5033605;28;20789;-55
2022/04/14 07:03:47;;;;;;;29.37;17.20;;;;;;;15.19;75.34;98919.56;5034324;28;20210;-55
2022/04/14 07:06:14;;;;;;;35.37;19.17;;;;;;;15.31;75.07;98927.88;5034711;28;20195;-55
2022/04/14 07:08:42;;;;;;;33.23;21.73;;;;;;;15.45;73.54;98930.72;5034321;28;20186;-55
2022/04/14 07:11:09;;;;;;;36.40;22.50;;;;;;;15.00;74.65;98935.75;5033500;28;20370;-55
2022/04/14 07:13:36;;;;;;;36.23;24.73;;;;;;;15.27;74.12;98931.84;5034184;28;20261;-55
2022/04/14 07:16:03;;;;;;;39.90;24.17;;;;;;;15.53;74.50;98935.94;5034132;28;20241;-55
2022/04/14 07:18:30;;;;;;;34.20;23.50;;;;;;;15.73;73.00;98930.19;5034205;28;20191;-54
2022/04/14 07:20:56;;;;;;;34.53;23.57;;;;;;;15.78;71.23;98938.38;5033195;28;20702;-55
2022/04/14 07:23:23;;;;;;;39.07;24.93;;;;;;;15.87;70.16;98940.00;5033850;28;20215;-55
2022/04/14 07:25:51;;;;;;;34.10;22.70;;;;;;;16.05;70.66;98939.66;5034007;28;20195;-55
2022/04/14 07:28:18;;;;;;;38.33;23.33;;;;;;;16.10;70.72;98939.13;5034014;28;20184;-56
2022/04/14 07:30:45;;;;;;;41.20;24.47;;;;;;;16.45;68.45;98944.69;5033150;28;20645;-55
2022/04/14 07:33:12;;;;;;;37.90;24.43;;;;;;;16.53;68.34;98947.25;5033896;28;20227;-55
2022/04/14 07:35:39;;;;;;;38.30;24.83;;;;;;;16.47;67.39;98952.44;5033871;28;20227;-55
2022/04/14 07:38:06;;;;;;;35.07;22.77;;;;;;;16.69;68.59;98953.34;5033633;28;20181;-55
2022/04/14 07:40:33;;;;;;;42.13;26.43;;;;;;;16.43;68.46;98951.97;5032779;28;20244;-55
2022/04/14 07:43:01;;;;;;;41.73;27.90;;;;;;;16.36;68.94;98946.59;5033720;28;20215;-55
2022/04/14 07:45:28;;;;;;;41.20;27.93;;;;;;;16.46;68.16;98946.34;5033719;28;20188;-55
2022/04/14 07:47:55;;;;;;;38.77;26.90;;;;;;;16.20;68.61;98939.69;5033647;28;20738;-55
2022/04/14 07:50:23;;;;;;;38.53;26.67;;;;;;;16.29;67.92;98937.78;5032715;28;20180;-55
2022/04/14 07:52:55;;;;;;;37.90;26.73;;;;;;;16.42;67.64;98947.72;5033375;28;20191;-55
2022/04/14 07:55:24;;;;;;;41.60;27.63;;;;;;;16.37;68.20;98945.59;5033567;28;20193;-55
2022/04/14 07:57:51;;;;;;;33.20;23.33;;;;;;;16.35;67.35;98947.59;5033428;28;20537;-55
2022/04/14 08:00:23;;;;;;;42.43;25.07;;;;;;;16.43;68.89;98951.16;5032527;28;20208;-56
2022/04/14 08:02:53;;;;;;;38.60;24.27;;;;;;;16.57;66.93;98944.25;5033428;28;20180;-56
2022/04/14 08:05:20;;;;;;;34.53;24.37;;;;;;;16.28;66.88;98951.97;5033170;28;20187;-55
2022/04/14 08:07:47;;;;;;;41.27;25.83;;;;;;;16.20;68.44;98952.88;5033197;28;20188;-55
2022/04/14 08:10:14;;;;;;;35.43;25.03;;;;;;;16.30;68.51;98955.22;5032359;28;20181;-55
2022/04/14 08:12:41;;;;;;;35.87;23.57;;;;;;;16.59;67.16;98961.53;5033153;28;20184;-55
2022/04/14 08:15:10;;;;;;;35.50;25.23;;;;;;;16.71;66.99;98961.88;5033070;28;20496;-55
2022/04/14 08:17:41;;;;;;;40.83;25.43;;;;;;;16.69;66.61;98961.25;5033140;28;20215;-55
2022/04/14 08:20:09;;;;;;;44.77;26.07;;;;;;;16.63;66.20;98962.81;5032082;28;20200;-55
2022/04/14 08:22:47;;;;;;;36.53;25.30;;;;;;;16.74;66.91;98953.59;5032932;28;20193;-55
2022/04/14 08:25:15;;;;;;;37.07;24.87;;;;;;;16.63;65.99;98954.91;5032939;28;20200;-55
2022/04/14 08:27:42;;;;;;;34.00;22.53;;;;;;;16.89;65.69;98960.69;5032417;28;20180;-54
2022/04/14 08:30:09;;;;;;;33.33;22.87;;;;;;;16.95;66.22;98955.50;5031862;28;20661;-55
2022/04/14 08:32:38;;;;;;;30.00;20.53;;;;;;;17.15;65.31;98960.22;5032778;28;20212;-55
2022/04/14 08:35:08;;;;;;;38.90;23.60;;;;;;;17.18;65.16;98962.47;5032662;28;20201;-55
2022/04/14 08:37:35;;;;;;;33.10;22.47;;;;;;;17.39;65.69;98967.00;5032746;28;20193;-55
2022/04/14 08:40:05;;;;;;;31.87;22.87;;;;;;;17.32;64.33;98966.09;5031750;28;20209;-55
2022/04/14 08:42:37;;;;;;;34.53;23.30;;;;;;;17.43;65.21;98972.69;5032531;28;20194;-55
2022/04/14 08:45:06;;;;;;;40.37;25.10;;;;;;;17.18;66.57;98961.69;5032705;28;20201;-55
2022/04/14 08:47:37;;;;;;;38.03;23.80;;;;;;;17.40;66.08;98966.00;5032392;28;20190;-55
2022/04/14 08:50:05;;;;;;;37.53;24.17;;;;;;;17.19;66.66;98971.22;5031613;28;20213;-55
2022/04/14 08:52:35;;;;;;;39.03;23.53;;;;;;;17.25;65.97;98970.47;5032260;28;20189;-55
2022/04/14 08:55:04;;;;;;;38.37;24.50;;;;;;;17.11;67.60;98974.78;5031981;28;20218;-55
2022/04/14 08:57:32;;;;;;;36.33;24.00;;;;;;;17.33;65.17;98969.53;5032351;28;20185;-55
2022/04/14 09:00:00;;;;;;;40.40;23.60;;;;;;;17.40;65.24;98970.44;5031459;28;20292;-55
2022/04/14 09:02:28;;;;;;;38.30;23.30;;;;;;;17.14;66.53;98977.03;5032377;28;20189;-55
2022/04/14 09:04:56;;;;;;;35.20;23.17;;;;;;;16.76;68.87;98971.88;5032798;28;20407;-55
2022/04/14 09:07:23;;;;;;;34.53;22.70;;;;;;;16.83;68.55;98968.31;5032269;28;20185;-55
2022/04/14 09:09:51;;;;;;;39.37;22.73;;;;;;;16.99;67.52;98968.34;5031193;28;20271;-54
2022/04/14 09:12:19;;;;;;;36.63;21.90;;;;;;;17.13;67.42;98964.84;5032218;28;20184;-55
2022/04/14 09:14:46;;;;;;;37.97;22.33;;;;;;;17.26;67.39;98964.22;5032216;28;20221;-55
2022/04/14 09:17:13;;;;;;;35.73;22.47;;;;;;;17.46;66.17;98967.06;5032088;28;20193;-55
2022/04/14 09:19:41;;;;;;;36.27;20.87;;;;;;;17.71;65.02;98964.84;5031228;28;20201;-55
2022/04/14 09:22:10;;;;;;;31.03;21.67;;;;;;;17.69;64.42;98966.06;5031888;28;20187;-55
2022/04/14 09:24:43;;;;;;;39.43;22.60;;;;;;;17.65;65.60;98973.53;5031904;28;20199;-56
2022/04/14 09:27:23;;;;;;;35.03;21.90;;;;;;;17.51;65.06;98969.13;5031927;28;20181;-55
2022/04/14 09:29:52;;;;;;;33.40;20.67;;;;;;;17.84;64.52;98968.63;5031236;28;20178;-55
2022/04/14 09:32:33;;;;;;;36.50;22.73;;;;;;;17.88;63.52;98975.16;5031930;28;20182;-55
2022/04/14 09:35:02;;;;;;;26.53;18.60;;;;;;;17.74;65.28;98974.22;5031910;28;20267;-55
2022/04/14 09:37:29;;;;;;;35.17;20.83;;;;;;;17.80;65.44;98976.13;5031915;28;20255;-55
2022/04/14 09:40:00;;;;;;;28.00;18.83;;;;;;;17.78;64.28;98975.50;5033411;28;20189;-55
2022/04/14 09:42:30;;;;;;;27.77;17.90;;;;;;;17.92;63.59;98970.31;5018181;28;20202;-55
2022/04/14 09:45:17;;;;;;;34.33;19.00;;;;;;;17.88;64.34;98979.63;5035859;28;20212;-55
2022/04/14 09:47:44;;;;;;;26.43;18.33;;;;;;;17.84;64.20;98968.63;5035939;28;20249;-55
2022/04/14 09:50:28;;;;;;;24.20;17.53;;;;;;;18.15;62.18;98984.13;5035091;28;20183;-56
2022/04/14 09:52:59;;;;;;;26.23;17.50;;;;;;;18.10;63.10;98975.97;5033847;28;20201;-56
2022/04/14 09:55:26;;;;;;;32.40;17.23;;;;;;;18.14;63.34;98976.41;5035673;28;20188;-55
2022/04/14 09:58:14;;;;;;;24.97;16.90;;;;;;;18.17;63.46;98983.13;5035668;28;20191;-55
2022/04/14 10:00:48;;;;;;;24.53;17.03;;;;;;;18.19;63.52;98974.03;5034766;28;20228;-55
2022/04/14 10:03:17;;;;;;;25.13;17.13;;;;;;;18.43;61.93;98969.31;5035687;28;20310;-55
2022/04/14 10:05:45;;;;;;;26.00;17.63;;;;;;;18.55;61.91;98977.50;5035512;28;20536;-56
2022/04/14 10:08:13;;;;;;;29.10;17.63;;;;;;;18.39;63.06;98971.50;5035376;28;20689;-55
2022/04/14 10:10:42;;;;;;;24.33;18.17;;;;;;;18.84;62.14;98976.44;5034650;28;20216;-55
2022/04/14 10:13:10;;;;;;;31.00;18.83;;;;;;;18.67;61.49;98969.84;5035353;28;20213;-55
2022/04/14 10:15:40;;;;;;;26.73;16.57;;;;;;;18.98;60.71;98980.00;5035371;28;20195;-56
2022/04/14 10:18:09;;;;;;;26.00;17.00;;;;;;;19.02;59.65;98973.31;5035260;28;20195;-55
2022/04/14 10:20:37;;;;;;;32.97;19.90;;;;;;;19.20;59.05;98987.00;5034218;28;20206;-56
2022/04/14 10:23:04;;;;;;;24.33;16.53;;;;;;;19.08;59.63;98973.53;5035168;28;20658;-55
2022/04/14 10:25:32;;;;;;;24.73;16.57;;;;;;;19.22;58.82;98980.47;5017484;28;20206;-55
2022/04/14 10:28:00;;;;;;;25.70;15.97;;;;;;;19.05;59.26;98973.94;5035193;28;20282;-55
2022/04/14 10:30:28;;;;;;;22.50;16.17;;;;;;;18.92;60.19;98980.75;5034445;28;20185;-55
2022/04/14 10:32:57;;;;;;;23.63;17.17;;;;;;;18.84;59.56;98971.16;5034805;28;20205;-55
2022/04/14 10:35:26;;;;;;;23.30;16.93;;;;;;;19.06;59.51;98968.44;5035087;28;20593;-55
2022/04/14 10:38:01;;;;;;;28.93;17.27;;;;;;;19.15;59.48;98975.19;5017205;28;20210;-56
2022/04/14 10:40:31;;;;;;;28.27;17.97;;;;;;;19.00;60.33;98974.50;5034048;28;20201;-55
2022/04/14 10:42:58;;;;;;;20.77;14.20;;;;;;;19.32;59.52;98977.47;5035117;28;20234;-56
2022/04/14 10:45:25;;;;;;;26.70;16.23;;;;;;;19.38;59.50;98979.34;5035269;28;20266;-55
2022/04/14 10:48:01;;;;;;;25.20;16.57;;;;;;;19.88;57.88;98975.53;5034951;28;20190;-55
2022/04/14 10:50:30;;;;;;;23.03;15.80;;;;;;;20.05;58.84;98983.94;5033543;28;20191;-55
2022/04/14 10:53:08;;;;;;;25.50;16.67;;;;;;;20.05;56.41;98976.78;5034575;28;20189;-55
2022/04/14 10:55:45;;;;;;;23.60;16.33;;;;;;;19.90;56.00;98974.34;5034679;28;20194;-56
2022/04/14 10:58:49;;;;;;;27.43;16.27;;;;;;;19.71;56.85;98985.69;5034583;28;20665;-56
2022/04/14 11:01:15;;;;;;;22.77;15.70;;;;;;;19.64;56.37;98983.03;5020565;28;20651;-56
2022/04/14 11:03:48;;;;;;;25.00;16.97;;;;;;;19.71;57.42;98986.50;5034455;28;20213;-55
2022/04/14 11:06:50;;;;;;;23.50;16.73;;;;;;;19.75;56.16;98985.09;5034428;28;20184;-55
2022/04/14 11:09:53;;;;;;;24.83;15.93;;;;;;;19.92;57.59;98979.44;5016749;28;20648;-56
2022/04/14 11:12:22;;;;;;;24.47;17.07;;;;;;;19.81;58.15;98993.25;5034299;28;20188;-55
2022/04/14 11:14:55;;;;;;;27.07;17.47;;;;;;;19.93;57.13;98985.56;5034132;28;20214;-55
2022/04/14 11:17:52;;;;;;;24.03;18.10;;;;;;;20.04;57.04;98987.59;5034207;28;20178;-56
2022/04/14 11:20:45;;;;;;;22.60;16.67;;;;;;;20.08;57.64;98999.44;5033383;28;20181;-55
2022/04/14 11:23:13;;;;;;;27.17;19.10;;;;;;;19.84;55.67;98998.13;5033945;28;20218;-55
2022/04/14 11:25:48;;;;;;;25.20;18.43;;;;;;;19.43;57.58;98986.66;5034072;28;20193;-55
2022/04/14 11:28:26;;;;;;;27.10;18.53;;;;;;;19.11;59.60;98983.69;5034073;28;20239;-56